Home > Products > Valid Products > TAF

000
FTUS41 KAKQ 240800 AAA
TAFORF
TAF AMD
KORF 240810Z 2408/2506 31007KT P6SM SKC
     FM241400 34012G18KT P6SM FEW040 SCT150
     FM242200 29010KT P6SM SKC=



000
FTUS41 KAKQ 240800 AAA
TAFORF
TAF AMD
KORF 240810Z 2408/2506 31007KT P6SM SKC
     FM241400 34012G18KT P6SM FEW040 SCT150
     FM242200 29010KT P6SM SKC=



000
FTUS41 KAKQ 240500
TAFSBY
TAF
KSBY 240540Z 2406/2506 29004KT P6SM BKN050
     FM241400 31012G20KT P6SM SCT040 SCT150
     FM242200 29009KT P6SM SKC=



000
FTUS41 KAKQ 240500
TAFORF
TAF
KORF 240540Z 2406/2506 32009G15KT P6SM SKC
     FM241400 34012G18KT P6SM FEW040 SCT150
     FM242200 29010KT P6SM SKC=



000
FTUS41 KAKQ 240500
TAFRIC
TAF
KRIC 240540Z 2406/2506 29007KT P6SM SKC
     FM241400 32012KT P6SM SCT040
     FM242000 28007KT P6SM SKC=



000
FTUS41 KAKQ 240500
TAFPHF
TAF
KPHF 240540Z 2406/2506 31009KT P6SM SKC
     FM241400 32012G20KT P6SM SCT150
     FM242200 29009KT P6SM SKC=



000
FTUS41 KAKQ 240500
TAFECG
TAF
KECG 240540Z 2406/2506 27009KT P6SM SKC
     FM241400 31010G15KT P6SM SKC=



000
FTUS41 KAKQ 232300
TAFRIC
TAF
KRIC 232326Z 2400/2424 34011KT P6SM FEW050
     FM240600 31005KT P6SM SKC
     FM241400 32012KT P6SM FEW200=



000
FTUS41 KAKQ 232300
TAFECG
TAF
KECG 232326Z 2400/2424 30008KT P6SM SKC
     FM241400 31010G15KT P6SM FEW200=



000
FTUS41 KAKQ 232300
TAFPHF
TAF
KPHF 232326Z 2400/2424 33009KT P6SM SKC
     FM241400 32011G16KT P6SM SCT200=



000
FTUS41 KAKQ 232300
TAFSBY
TAF
KSBY 232326Z 2400/2424 33011KT P6SM OVC040
     FM240400 31010KT P6SM SCT050
     FM241400 31015G20KT P6SM FEW050 SCT200=



000
FTUS41 KAKQ 232300
TAFORF
TAF
KORF 232326Z 2400/2424 33011KT P6SM SKC
     FM241400 34013G18KT P6SM FEW040 SCT200=



000
FTUS41 KAKQ 231700
TAFPHF
TAF
KPHF 231737Z 2318/2418 31012G20KT P6SM BKN040
     FM232200 31009KT P6SM FEW040
     FM241400 32011G16KT P6SM SCT200=



000
FTUS41 KAKQ 231700
TAFSBY
TAF
KSBY 231737Z 2318/2418 31015G20KT P6SM BKN035
     FM232300 32010G16KT P6SM SCT040
     FM240400 31010KT P6SM SCT050
     FM241400 31015G20KT P6SM FEW050 SCT200=



000
FTUS41 KAKQ 231700
TAFORF
TAF
KORF 231737Z 2318/2418 31014G21KT P6SM BKN040
     FM232200 31011G16KT P6SM SCT040
     FM241400 34013G18KT P6SM FEW040 SCT200=



000
FTUS41 KAKQ 231700
TAFECG
TAF
KECG 231737Z 2318/2418 30016G22KT P6SM SKC
     FM232200 32012KT P6SM SKC
     FM241400 31010G15KT P6SM FEW200=



000
FTUS41 KAKQ 231700
TAFRIC
TAF
KRIC 231737Z 2318/2418 32013G18KT P6SM SCT045
     FM232200 31009KT P6SM SKC
     FM240600 31005KT P6SM SKC
     FM241400 32012KT P6SM FEW200=



000
FTUS41 KAKQ 231100
TAFECG
TAF
KECG 231133Z 2312/2412 29009G15KT P6SM SCT025 OVC040
     FM231400 30016G22KT P6SM SCT050
     FM232300 32012KT P6SM SKC=



000
FTUS41 KAKQ 231100
TAFSBY
TAF
KSBY 231133Z 2312/2412 32012G20KT 6SM BR SCT015 OVC025
     FM231400 32017G25KT P6SM SCT025 BKN040
     FM231800 31015G20KT P6SM SCT040 BKN060
     FM232300 32009KT P6SM SKC=



000
FTUS41 KAKQ 231100
TAFPHF
TAF
KPHF 231133Z 2312/2412 31012G20KT P6SM SCT025 OVC040
     FM231500 31012G20KT P6SM SCT040
     FM232300 31009KT P6SM SKC=



000
FTUS41 KAKQ 231100
TAFORF
TAF
KORF 231133Z 2312/2412 32012G20KT P6SM SCT025 OVC035
     FM231500 31017G24KT P6SM SCT040
     FM232200 31012G20KT P6SM SKC=



000
FTUS41 KAKQ 231100
TAFRIC
TAF
KRIC 231133Z 2312/2412 31009KT P6SM BKN040
     FM231400 32014G22KT P6SM SCT050
     FM232300 31009KT P6SM SKC=



000
FTUS41 KAKQ 231000 AAA
TAFRIC
TAF AMD
KRIC 231048Z 2311/2406 31009KT P6SM BKN040
     FM231400 32014G22KT P6SM SCT050
     FM232300 31009KT P6SM SKC=



000
FTUS41 KAKQ 231000 AAC
TAFSBY
TAF AMD
KSBY 231048Z 2311/2406 32012G20KT P6SM VCSH SCT015 OVC025
     FM231400 32017G25KT P6SM SCT025 BKN040
     FM231800 31015G20KT P6SM SCT040 BKN060
     FM232300 32009KT P6SM SKC=



000
FTUS41 KAKQ 230800 AAB
TAFSBY
TAF AMD
KSBY 230827Z 2308/2406 32012G20KT P6SM -RA BKN015 OVC025
     FM231400 32017G25KT P6SM SCT025 BKN040
     FM231800 31015G20KT P6SM SCT040 BKN060
     FM232300 32009KT P6SM SKC=



000
FTUS41 KAKQ 230800 AAA
TAFSBY
TAF AMD
KSBY 230805Z 2308/2406 33012G20KT P6SM -RA BKN020 OVC030
     FM231400 32017G25KT P6SM SCT040
     FM231800 31015G20KT P6SM SCT040 BKN060
     FM232300 32009KT P6SM SKC=



000
FTUS41 KAKQ 230800 AAA
TAFSBY
TAF AMD
KSBY 230805Z 2308/2406 33012G20KT P6SM -RA BKN020 OVC030
     FM231400 32017G25KT P6SM SCT040
     FM231800 31015G20KT P6SM SCT040 BKN060
     FM232300 32009KT P6SM SKC=



000
FTUS41 KAKQ 230500
TAFPHF
TAF
KPHF 230534Z 2306/2406 33009G15KT P6SM SCT025 OVC035
     FM231400 31012G20KT P6SM SCT040
     FM232300 31009KT P6SM SKC=



000
FTUS41 KAKQ 230500
TAFRIC
TAF
KRIC 230534Z 2306/2406 32012KT P6SM BKN040
     FM231400 32014G22KT P6SM SCT050
     FM232300 31009KT P6SM SKC=



000
FTUS41 KAKQ 230500
TAFECG
TAF
KECG 230534Z 2306/2406 31009G15KT P6SM SCT025 OVC040
     FM231400 30016G22KT P6SM SCT050
     FM232300 32012KT P6SM SKC=



000
FTUS41 KAKQ 230500
TAFORF
TAF
KORF 230534Z 2306/2406 32009G15KT P6SM SCT025 OVC035
     FM231400 31017G24KT P6SM SCT040
     FM232200 31012G20KT P6SM SKC=



000
FTUS41 KAKQ 230500
TAFSBY
TAF
KSBY 230534Z 2306/2406 33012G20KT P6SM BKN025 OVC035
     FM231400 32017G25KT P6SM SCT040
     FM231800 31015G20KT P6SM SCT040 BKN060
     FM232300 32009KT P6SM SKC=



000
FTUS41 KAKQ 230500 AAA
TAFECG
TAF AMD
KECG 230501Z 2305/2324 31012G20KT P6SM SCT025 OVC040
     FM231400 30016G22KT P6SM SCT050=



000
FTUS41 KAKQ 230500 AAA
TAFPHF
TAF AMD
KPHF 230501Z 2305/2324 33012G20KT P6SM SCT025 OVC035
     FM231400 31013G19KT P6SM SCT040=



000
FTUS41 KAKQ 230500 AAA
TAFORF
TAF AMD
KORF 230501Z 2305/2324 32012G20KT P6SM SCT020 OVC030
     FM230800 31013G22KT P6SM BKN035
     FM231400 31017G24KT P6SM SCT040=



000
FTUS41 KAKQ 230500 AAA
TAFSBY
TAF AMD
KSBY 230501Z 2305/2324 33015G25KT P6SM SCT020 OVC035
     FM230800 31013G22KT P6SM BKN035
     FM231400 32017G25KT P6SM SCT040
     FM231800 31015G20KT P6SM SCT040 BKN070=



000
FTUS41 KAKQ 230500 AAA
TAFPHF
TAF AMD
KPHF 230501Z 2305/2324 33012G20KT P6SM SCT025 OVC035
     FM231400 31013G19KT P6SM SCT040=



000
FTUS41 KAKQ 230500 AAA
TAFECG
TAF AMD
KECG 230501Z 2305/2324 31012G20KT P6SM SCT025 OVC040
     FM231400 30016G22KT P6SM SCT050=



000
FTUS41 KAKQ 230500 AAA
TAFORF
TAF AMD
KORF 230501Z 2305/2324 32012G20KT P6SM SCT020 OVC030
     FM230800 31013G22KT P6SM BKN035
     FM231400 31017G24KT P6SM SCT040=



000
FTUS41 KAKQ 230500 AAA
TAFSBY
TAF AMD
KSBY 230501Z 2305/2324 33015G25KT P6SM SCT020 OVC035
     FM230800 31013G22KT P6SM BKN035
     FM231400 32017G25KT P6SM SCT040
     FM231800 31015G20KT P6SM SCT040 BKN070=



000
FTUS41 KAKQ 222300
TAFPHF
TAF
KPHF 222320Z 2300/2324 33011G21KT P6SM OVC017
     FM230600 31012G20KT P6SM BKN040
     FM231400 31013G19KT P6SM SCT040=



000
FTUS41 KAKQ 222300
TAFSBY
TAF
KSBY 222320Z 2300/2324 33015G25KT P6SM -RA BKN012 OVC025
     FM230600 31013G21KT P6SM OVC030
     FM231400 32017G25KT P6SM BKN035
     FM231800 31015G20KT P6SM SCT040 BKN070=



000
FTUS41 KAKQ 222300
TAFRIC
TAF
KRIC 222320Z 2300/2324 33015KT P6SM SCT020 BKN050
     FM230600 32010KT P6SM SCT050
     FM231400 32016G22KT P6SM SCT050=



000
FTUS41 KAKQ 222300
TAFECG
TAF
KECG 222320Z 2300/2324 31017G23KT P6SM BKN023 OVC030
     FM230600 30013G20KT P6SM BKN050
     FM231400 30016G22KT P6SM SCT050=



000
FTUS41 KAKQ 222300
TAFORF
TAF
KORF 222320Z 2300/2324 32014G24KT P6SM OVC018
     FM230600 31013G22KT P6SM BKN035
     FM231400 31017G24KT P6SM SCT040=



000
FTUS41 KAKQ 221700
TAFPHF
TAF
KPHF 221738Z 2218/2318 31013G22KT P6SM -RA BKN020 OVC040
      TEMPO 2218/2222 3SM -RA BR BKN012
     FM222300 32013G21KT P6SM OVC030
     FM230600 31012G20KT P6SM BKN040
     FM231400 31013G19KT P6SM SCT040=



000
FTUS41 KAKQ 221700
TAFRIC
TAF
KRIC 221738Z 2218/2318 33016G24KT P6SM OVC035
      TEMPO 2218/2222 5SM -RA SCT018 BKN025
     FM222300 32013KT P6SM BKN040
     FM230600 32010KT P6SM SCT050
     FM231400 32016G22KT P6SM SCT050=



000
FTUS41 KAKQ 221700
TAFECG
TAF
KECG 221738Z 2218/2318 30012G20KT 6SM BR BKN018 OVC050
     FM230000 31014G23KT P6SM BKN028
     FM230600 30013G20KT P6SM BKN050
     FM231400 30016G22KT P6SM SCT050=



000
FTUS41 KAKQ 221700
TAFSBY
TAF
KSBY 221738Z 2218/2318 35015G24KT 6SM -RA BKN018 OVC040
      TEMPO 2219/2223 3SM -RA BR BKN012
     FM230000 33015G23KT P6SM OVC022
     FM230600 31013G21KT P6SM OVC030
     FM231400 32017G25KT P6SM BKN035=



000
FTUS41 KAKQ 221700
TAFORF
TAF
KORF 221738Z 2218/2318 31014G22KT P6SM -RA BKN020 OVC028
      TEMPO 2218/2222 3SM -SHRA BR BKN018
     FM222200 32015G23KT P6SM OVC030
     FM230600 31013G22KT P6SM BKN040
     FM231400 31017G24KT P6SM SCT040=



000
FTUS41 KAKQ 221700
TAFRIC
TAF
KRIC 221738Z 2218/2318 33016G24KT P6SM OVC035
      TEMPO 2218/2222 5SM -RA SCT018 BKN025
     FM222300 32013KT P6SM BKN040
     FM230600 32010KT P6SM SCT050
     FM231400 32016G22KT P6SM SCT050=



000
FTUS41 KAKQ 221700
TAFORF
TAF
KORF 221738Z 2218/2318 31014G22KT P6SM -RA BKN020 OVC028
      TEMPO 2218/2222 3SM -SHRA BR BKN018
     FM222200 32015G23KT P6SM OVC030
     FM230600 31013G22KT P6SM BKN040
     FM231400 31017G24KT P6SM SCT040=



000
FTUS41 KAKQ 221700
TAFECG
TAF
KECG 221738Z 2218/2318 30012G20KT 6SM BR BKN018 OVC050
     FM230000 31014G23KT P6SM BKN028
     FM230600 30013G20KT P6SM BKN050
     FM231400 30016G22KT P6SM SCT050=



000
FTUS41 KAKQ 221700
TAFSBY
TAF
KSBY 221738Z 2218/2318 35015G24KT 6SM -RA BKN018 OVC040
      TEMPO 2219/2223 3SM -RA BR BKN012
     FM230000 33015G23KT P6SM OVC022
     FM230600 31013G21KT P6SM OVC030
     FM231400 32017G25KT P6SM BKN035=



000
FTUS41 KAKQ 221700
TAFPHF
TAF
KPHF 221738Z 2218/2318 31013G22KT P6SM -RA BKN020 OVC040
      TEMPO 2218/2222 3SM -RA BR BKN012
     FM222300 32013G21KT P6SM OVC030
     FM230600 31012G20KT P6SM BKN040
     FM231400 31013G19KT P6SM SCT040=



000
FTUS41 KAKQ 221600 AAA
TAFRIC
TAF AMD
KRIC 221617Z 2216/2312 32014G20KT P6SM -RA SCT014 OVC025
      TEMPO 2216/2218 BKN014
     FM221800 33016G24KT P6SM OVC025
     FM222300 32013KT P6SM BKN050
     FM230600 32010KT P6SM SCT050=



000
FTUS41 KAKQ 221500 AAA
TAFECG
TAF AMD
KECG 221554Z 2216/2312 30012G20KT P6SM BKN015 OVC050
     FM221900 29016G25KT P6SM -RA BKN020 OVC040
     FM230000 31014G23KT P6SM BKN030
     FM230600 30013G20KT P6SM SCT050=



000
FTUS41 KAKQ 221500 AAA
TAFECG
TAF AMD
KECG 221554Z 2216/2312 30012G20KT P6SM BKN015 OVC050
     FM221900 29016G25KT P6SM -RA BKN020 OVC040
     FM230000 31014G23KT P6SM BKN030
     FM230600 30013G20KT P6SM SCT050=



000
FTUS41 KAKQ 221500 AAA
TAFSBY
TAF AMD
KSBY 221542Z 2216/2312 36013G20KT 6SM BR BKN015 OVC030
     FM221800 34015G24KT 5SM -RA BR BKN015 OVC040
     FM230000 33015G23KT P6SM OVC025
     FM230600 31013G21KT P6SM BKN040=



000
FTUS41 KAKQ 221500 AAA
TAFSBY
TAF AMD
KSBY 221542Z 2216/2312 36013G20KT 6SM BR BKN015 OVC030
     FM221800 34015G24KT 5SM -RA BR BKN015 OVC040
     FM230000 33015G23KT P6SM OVC025
     FM230600 31013G21KT P6SM BKN040=



000
FTUS41 KAKQ 221400 AAA
TAFORF
TAF AMD
KORF 221428Z 2214/2312 33010G18KT P6SM -RA BKN010 OVC050
      TEMPO 2214/2217 2SM +RA BKN008
     FM221700 34014G22KT P6SM -RA BKN012 OVC040
     FM230000 34015G23KT P6SM OVC030
     FM230600 32013G22KT P6SM BKN050=



000
FTUS41 KAKQ 221100
TAFSBY
TAF
KSBY 221127Z 2212/2312 35010KT 6SM BR BKN003 OVC030
      TEMPO 2212/2216 3SM -RA BR BKN015
     FM221700 34015G24KT 5SM -RA BR BKN015 OVC040
     FM230000 33015G23KT P6SM OVC025
     FM230600 31013G21KT P6SM BKN040=



000
FTUS41 KAKQ 221100
TAFRIC
TAF
KRIC 221127Z 2212/2312 32013KT P6SM -RA BKN008 OVC050
      TEMPO 2212/2216 4SM -RA BR BKN015
     FM221700 33016G24KT P6SM OVC040
     FM230000 32013KT P6SM BKN050
     FM230600 32010KT P6SM SCT050=



000
FTUS41 KAKQ 221100
TAFPHF
TAF
KPHF 221127Z 2212/2312 31010G18KT P6SM -RA BKN012 OVC050
      TEMPO 2212/2216 4SM -TSRA BR BKN008CB
     FM221700 33013G22KT P6SM -RA BKN015 OVC040
     FM230000 33013G21KT P6SM OVC030
     FM230600 31012G20KT P6SM BKN050=



000
FTUS41 KAKQ 221100
TAFORF
TAF
KORF 221127Z 2212/2312 33010G18KT P6SM -RA BKN010 OVC050
      TEMPO 2212/2214 2SM -TSRA BR BKN008CB
     FM221700 34014G22KT P6SM -RA BKN015 OVC040
     FM230000 34015G23KT P6SM OVC030
     FM230600 32013G22KT P6SM BKN050=



000
FTUS41 KAKQ 221100
TAFECG
TAF
KECG 221127Z 2212/2312 30010G18KT P6SM SCT010 OVC050
      TEMPO 2212/2216 5SM -RA BR BKN010
     FM221700 31016G25KT P6SM -RA BKN020 OVC040
     FM230000 31014G23KT P6SM BKN030
     FM230600 30013G20KT P6SM SCT050=



000
FTUS41 KAKQ 221000 AAB
TAFRIC
TAF AMD
KRIC 221021Z 2210/2306 31010KT P6SM BKN015 OVC040
      TEMPO 2210/2212 5SM -RA BR BKN008
     FM221300 34013KT P6SM -RA BKN015 OVC040
     FM221700 33016G24KT P6SM OVC040
     FM230000 32013KT P6SM BKN050=



000
FTUS41 KAKQ 220900 AAA
TAFECG
TAF AMD
KECG 220910Z 2209/2306 31008KT P6SM SCT015 OVC080
      TEMPO 2209/2212 5SM -RA BR BKN015
     FM221300 31010G18KT P6SM -RA BKN030 OVC050
     FM221700 31016G25KT P6SM -RA BKN020 OVC040
     FM230000 31014G23KT P6SM BKN030=



000
FTUS41 KAKQ 220900 AAB
TAFPHF
TAF AMD
KPHF 220905Z 2209/2306 32008KT P6SM BKN012 OVC080
      TEMPO 2209/2212 5SM -RA BR BKN008
     FM221300 32010G18KT P6SM -RA BKN015 OVC050
     FM221700 33013G22KT P6SM -RA BKN015 OVC040
     FM230000 33013G21KT P6SM OVC030=



000
FTUS41 KAKQ 220800 AAB
TAFORF
TAF AMD
KORF 220856Z 2209/2306 33006KT P6SM BKN012 OVC080
      TEMPO 2209/2212 5SM -RA BR BKN008
     FM221300 33010G18KT P6SM -RA BKN015 OVC050
     FM221700 34014G22KT P6SM -RA BKN015 OVC040
     FM230000 34014G23KT P6SM OVC030=



000
FTUS41 KAKQ 220800 AAB
TAFSBY
TAF AMD
KSBY 220853Z 2209/2306 34005KT P6SM BKN005 OVC050
      TEMPO 2209/2212 4SM -RA BR BKN015
     FM221300 34010KT 5SM -RA BR BKN008 OVC015
     FM221700 34015G24KT 5SM -RA BR BKN015 OVC040
     FM230000 33015G23KT P6SM OVC025=



000
FTUS41 KAKQ 220800 AAA
TAFRIC
TAF AMD
KRIC 220851Z 2209/2306 33010KT P6SM SCT015 OVC060
      TEMPO 2209/2212 -RA OVC015
     FM221300 34013KT P6SM -RA BKN015 OVC040
     FM221700 33016G24KT P6SM OVC040
     FM230000 32013KT P6SM BKN050=



000
FTUS41 KAKQ 220700 AAA
TAFPHF
TAF AMD
KPHF 220729Z 2207/2306 33007KT P6SM BKN020 OVC080
      TEMPO 2207/2211 -RA BKN012
     FM221300 32010G18KT P6SM -RA BKN015 OVC050
     FM221700 33013G22KT P6SM -RA BKN015 OVC040
     FM230000 33013G21KT P6SM OVC030=



000
FTUS41 KAKQ 220700 AAA
TAFORF
TAF AMD
KORF 220726Z 2207/2306 34007KT P6SM SCT015 OVC080
      TEMPO 2207/2211 5SM -TSRA BR BKN012CB
     FM221300 33010G18KT P6SM -RA BKN015 OVC050
     FM221700 34014G22KT P6SM -RA BKN015 OVC040
     FM230000 34014G23KT P6SM OVC030=



000
FTUS41 KAKQ 220700 AAA
TAFSBY
TAF AMD
KSBY 220722Z 2207/2306 34005KT P6SM SCT015 OVC080
      TEMPO 2207/2211 5SM -RA BR BKN005
     FM221300 34010KT 5SM -RA BR BKN008 OVC015
     FM221700 34015G24KT 5SM -RA BR BKN015 OVC040
     FM230000 33015G23KT P6SM OVC025=



000
FTUS41 KAKQ 220500 RRA
TAFPHF
TAF
KPHF 220548Z 2206/2306 33007KT P6SM SCT015 OVC080
      TEMPO 2206/2210 -RA BKN015
     FM221300 32010G18KT P6SM -RA BKN015 OVC050
     FM221700 33013G22KT P6SM -RA BKN015 OVC040
     FM230000 33013G21KT P6SM OVC030=



000
FTUS41 KAKQ 220500 RRA
TAFRIC
TAF
KRIC 220548Z 2206/2306 34010KT P6SM SCT015 OVC080
      TEMPO 2206/2210 -RA OVC015
     FM221300 34013KT P6SM -RA BKN015 OVC040
     FM221700 33016G24KT P6SM OVC040
     FM230000 32013KT P6SM BKN050=



000
FTUS41 KAKQ 220500 RRA
TAFECG
TAF
KECG 220548Z 2206/2306 31008KT P6SM SCT015 OVC080
      TEMPO 2206/2210 -RA BKN015
     FM221300 31010G18KT P6SM -RA BKN030 OVC050
     FM221700 31016G25KT P6SM -RA BKN020 OVC040
     FM230000 31014G23KT P6SM BKN030=



000
FTUS41 KAKQ 220500 RRA
TAFSBY
TAF
KSBY 220548Z 2206/2306 35006KT P6SM SCT015 OVC080
      TEMPO 2206/2210 5SM -RA BR OVC010
     FM221300 34010KT 5SM -RA BR BKN008 OVC015
     FM221700 34015G24KT 5SM -RA BR BKN015 OVC040
     FM230000 33015G23KT P6SM OVC025=



000
FTUS41 KAKQ 220500 RRA
TAFORF
TAF
KORF 220548Z 2206/2306 34008KT P6SM SCT015 OVC080
      TEMPO 2206/2210 -RA BKN015
     FM221300 33010G18KT P6SM -RA BKN015 OVC050
     FM221700 34014G22KT P6SM -RA BKN015 OVC040
     FM230000 34014G23KT P6SM OVC030=



000
FTUS41 KAKQ 220500 RRA
TAFRIC
TAF
KRIC 220548Z 2206/2306 34010KT P6SM SCT015 OVC080
      TEMPO 2206/2210 -RA OVC015
     FM221300 34013KT P6SM -RA BKN015 OVC040
     FM221700 33016G24KT P6SM OVC040
     FM230000 32013KT P6SM BKN050=



000
FTUS41 KAKQ 220500 RRA
TAFPHF
TAF
KPHF 220548Z 2206/2306 33007KT P6SM SCT015 OVC080
      TEMPO 2206/2210 -RA BKN015
     FM221300 32010G18KT P6SM -RA BKN015 OVC050
     FM221700 33013G22KT P6SM -RA BKN015 OVC040
     FM230000 33013G21KT P6SM OVC030=



000
FTUS41 KAKQ 220500 RRA
TAFECG
TAF
KECG 220548Z 2206/2306 31008KT P6SM SCT015 OVC080
      TEMPO 2206/2210 -RA BKN015
     FM221300 31010G18KT P6SM -RA BKN030 OVC050
     FM221700 31016G25KT P6SM -RA BKN020 OVC040
     FM230000 31014G23KT P6SM BKN030=



000
FTUS41 KAKQ 220500 RRA
TAFORF
TAF
KORF 220548Z 2206/2306 34008KT P6SM SCT015 OVC080
      TEMPO 2206/2210 -RA BKN015
     FM221300 33010G18KT P6SM -RA BKN015 OVC050
     FM221700 34014G22KT P6SM -RA BKN015 OVC040
     FM230000 34014G23KT P6SM OVC030=



000
FTUS41 KAKQ 220500 RRA
TAFSBY
TAF
KSBY 220548Z 2206/2306 35006KT P6SM SCT015 OVC080
      TEMPO 2206/2210 5SM -RA BR OVC010
     FM221300 34010KT 5SM -RA BR BKN008 OVC015
     FM221700 34015G24KT 5SM -RA BR BKN015 OVC040
     FM230000 33015G23KT P6SM OVC025=



000
FTUS41 KAKQ 220200 AAA
TAFORF
TAF AMD
KORF 220248Z 2203/2224 33007KT P6SM BKN050
      TEMPO 2204/2207 34010G18KT -RA BKN015 OVC040
     FM221000 32008KT 4SM -RA BR BKN015 OVC030
     FM221500 34012G18KT 4SM -RA BR OVC008
     FM221900 34015G25KT P6SM BKN040=



000
FTUS41 KAKQ 220200 AAA
TAFORF
TAF AMD
KORF 220248Z 2203/2224 33007KT P6SM BKN050
      TEMPO 2204/2207 34010G18KT -RA BKN015 OVC040
     FM221000 32008KT 4SM -RA BR BKN015 OVC030
     FM221500 34012G18KT 4SM -RA BR OVC008
     FM221900 34015G25KT P6SM BKN040=



000
FTUS41 KAKQ 220200 AAB
TAFSBY
TAF AMD
KSBY 220244Z 2203/2224 32009KT P6SM -RA BKN050 OVC080
      TEMPO 2203/2205 BKN025 OVC040
     FM220500 32010KT P6SM SCT020 BKN050
     FM220900 33008KT 5SM -RA BR BKN015 OVC040
     FM221100 34012KT 2SM -RA BR OVC008
     FM221900 35015G25KT 5SM -RA BR BKN015 OVC040=



000
FTUS41 KAKQ 220200 AAB
TAFSBY
TAF AMD
KSBY 220244Z 2203/2224 32009KT P6SM -RA BKN050 OVC080
      TEMPO 2203/2205 BKN025 OVC040
     FM220500 32010KT P6SM SCT020 BKN050
     FM220900 33008KT 5SM -RA BR BKN015 OVC040
     FM221100 34012KT 2SM -RA BR OVC008
     FM221900 35015G25KT 5SM -RA BR BKN015 OVC040=



000
FTUS41 KAKQ 220200 AAB
TAFRIC
TAF AMD
KRIC 220241Z 2203/2224 34008KT P6SM SCT050 OVC100
      TEMPO 2203/2206 BKN015 OVC050
     FM220600 34010KT 4SM BR OVC015
     FM220900 33008KT 4SM -RA BR BKN008 OVC050
     FM221400 34013KT P6SM -RA OVC015
     FM221700 33015G21KT P6SM OVC040=



000
FTUS41 KAKQ 220200 AAA
TAFECG
TAF AMD
KECG 220235Z 2203/2224 22005KT P6SM OVC100
      TEMPO 2203/2205 VRB15G25KT 3SM SHRA BKN040 OVC080
     FM220500 33011KT P6SM -RA BKN050 OVC100
     FM221000 30009KT P6SM -RA BKN030 OVC050
     FM221500 29013G18KT P6SM SCT030 BKN050
     FM221800 31016G25KT P6SM BKN050=



000
FTUS41 KAKQ 220100 AAA
TAFRIC
TAF AMD
KRIC 220119Z 2201/2224 32008KT P6SM SCT050 BKN100
     FM220900 33010KT 4SM -RA BR BKN025 OVC050
     FM221700 33013G18KT P6SM OVC040=



000
FTUS41 KAKQ 220100 AAA
TAFSBY
TAF AMD
KSBY 220118Z 2201/2224 VRB03KT P6SM BKN100
      TEMPO 2201/2203 VRB15G25KT 3SM TSRA BKN040CB
     FM220300 32010G18KT P6SM BKN050
     FM220500 32008KT P6SM SCT050 OVC100
     FM220900 33008KT 5SM -RA BR BKN015 OVC040
     FM221400 36012KT 5SM -RA BR OVC020
     FM221900 35015G25KT P6SM -RA BKN025 OVC040=



000
FTUS41 KAKQ 212300
TAFRIC
TAF
KRIC 212339Z 2200/2224 31015G25KT P6SM SCT040 OVC100
     FM220030 29010G18KT P6SM BKN100
     FM220130 30008KT P6SM SCT050 BKN100
     FM220900 33010KT 4SM -RA BR BKN025 OVC050
     FM221700 33013G18KT P6SM OVC040=



000
FTUS41 KAKQ 212300
TAFPHF
TAF
KPHF 212339Z 2200/2224 25006KT P6SM SCT050 BKN100
     FM220300 32004KT P6SM BKN050
      TEMPO 2203/2205 32010G18KT -RA
     FM220900 32007KT 5SM -RA BR BKN015
     FM221500 32010G15KT P6SM BKN020
     FM221900 34014G23KT P6SM BKN040=



000
FTUS41 KAKQ 212300
TAFORF
TAF
KORF 212339Z 2200/2224 25004KT P6SM SCT050 BKN080
     FM220400 32010KT P6SM BKN050
      TEMPO 2204/2206 34012G20KT -RA
     FM221000 32008KT P6SM -RA BKN020 OVC040
     FM221500 34012G18KT P6SM -RA BKN025 OVC040
     FM221900 34015G25KT P6SM BKN040=



000
FTUS41 KAKQ 212300
TAFSBY
TAF
KSBY 212339Z 2200/2224 VRB03KT P6SM BKN100
     FM220300 32010G18KT P6SM BKN050
     FM220500 32008KT P6SM SCT050 OVC100
     FM220900 33008KT 5SM -RA BR BKN015 OVC040
     FM221400 36012KT 5SM -RA BR OVC020
     FM221900 35015G25KT P6SM -RA BKN025 OVC040=



000
FTUS41 KAKQ 212300
TAFECG
TAF
KECG 212339Z 2200/2224 27005KT P6SM SCT100 BKN250
     FM220400 30007KT P6SM SCT050 OVC100
      TEMPO 2206/2208 32010G18KT -RA BKN050
     FM221000 30009KT P6SM -RA BKN030 OVC050
     FM221500 29013G18KT P6SM SCT030 BKN050
     FM221800 31016G25KT P6SM BKN050=



000
FTUS41 KAKQ 212300 AAA
TAFRIC
TAF AMD
KRIC 212318Z 2123/2218 VRB03KT P6SM -RA BKN050 OVC100
     FM212330 31015G25KT P6SM SCT040 OVC100
     FM220030 29010G18KT P6SM BKN100
     FM220130 30008KT P6SM SCT050 BKN100
     FM220900 33010KT 4SM -RA BR BKN025 OVC050
     FM221700 33013G18KT P6SM OVC040=



000
FTUS41 KAKQ 212300 AAA
TAFRIC
TAF AMD
KRIC 212318Z 2123/2218 VRB03KT P6SM -RA BKN050 OVC100
     FM212330 31015G25KT P6SM SCT040 OVC100
     FM220030 29010G18KT P6SM BKN100
     FM220130 30008KT P6SM SCT050 BKN100
     FM220900 33010KT 4SM -RA BR BKN025 OVC050
     FM221700 33013G18KT P6SM OVC040=



000
FTUS41 KAKQ 211700 RRA
TAFORF
TAF
KORF 211743Z 2118/2218 25007KT P6SM SCT100 BKN250
     FM220300 32004KT P6SM BKN050
     FM221000 32008KT P6SM BKN020
     FM221500 34012G16KT P6SM BKN020=



000
FTUS41 KAKQ 211700 RRA
TAFECG
TAF
KECG 211743Z 2118/2218 25007KT P6SM SCT100 BKN250
     FM220400 24007KT P6SM SCT050
     FM221000 30009KT P6SM BKN020 BKN080
     FM221500 29013G18KT P6SM BKN025=



000
FTUS41 KAKQ 211700 RRA
TAFSBY
TAF
KSBY 211743Z 2118/2218 25006KT P6SM SCT100 BKN200
     FM212000 26004KT P6SM BKN100
     FM220300 32005KT P6SM BKN050
     FM220900 33008KT 5SM -DZ BR BKN015 OVC040
     FM221500 36012KT P6SM BKN020 OVC040=



000
FTUS41 KAKQ 211700 RRA
TAFPHF
TAF
KPHF 211743Z 2118/2218 25006KT P6SM SCT100 BKN250
     FM220300 32004KT P6SM BKN040
     FM220900 32007KT P6SM BKN015
     FM221500 32010G15KT P6SM BKN020=



000
FTUS41 KAKQ 211700 RRA
TAFRIC
TAF
KRIC 211743Z 2118/2218 26007KT P6SM FEW040 SCT200
     FM212200 29006KT P6SM BKN035 BKN100
     FM220500 33007KT P6SM BKN015
     FM220900 33010KT 4SM -DZ BR BKN010 OVC030
     FM221500 33013G18KT P6SM BKN015 OVC030=



000
FTUS41 KAKQ 211100
TAFRIC
TAF
KRIC 211134Z 2112/2212 22004KT P6SM SCT100
     FM211500 26007KT P6SM SCT100 BKN200
     FM212000 29006KT P6SM BKN100
     FM220000 33005KT P6SM BKN050
     FM220800 33006KT P6SM BKN030=



000
FTUS41 KAKQ 211100
TAFSBY
TAF
KSBY 211134Z 2112/2212 22004KT P6SM BKN100
      TEMPO 2112/2114 5SM -SHRA
     FM211500 25006KT P6SM SCT100 BKN200
     FM212000 26004KT P6SM BKN100
     FM220200 32003KT P6SM BKN050
     FM220800 33005KT P6SM BKN030=



000
FTUS41 KAKQ 211100
TAFECG
TAF
KECG 211134Z 2112/2212 22005KT P6SM BKN100
     FM211500 25007KT P6SM SCT100 BKN250
     FM212000 24007KT P6SM SCT120
     FM220300 30006KT P6SM BKN080
     FM220800 29006KT P6SM SCT050=



000
FTUS41 KAKQ 211100
TAFORF
TAF
KORF 211134Z 2112/2212 23007KT P6SM BKN100
     FM211500 25007KT P6SM SCT100 BKN250
     FM212000 27005KT P6SM SCT100
     FM220200 32004KT P6SM BKN080
     FM220800 32005KT P6SM BKN050=



000
FTUS41 KAKQ 211100
TAFORF
TAF
KORF 211134Z 2112/2212 23007KT P6SM BKN100
     FM211500 25007KT P6SM SCT100 BKN250
     FM212000 27005KT P6SM SCT100
     FM220200 32004KT P6SM BKN080
     FM220800 32005KT P6SM BKN050=



000
FTUS41 KAKQ 211100
TAFPHF
TAF
KPHF 211134Z 2112/2212 23006KT P6SM BKN100
     FM211500 25006KT P6SM SCT100 BKN250
     FM212000 27005KT P6SM SCT100
     FM220200 32004KT P6SM BKN080
     FM220800 32005KT P6SM BKN040=



000
FTUS41 KAKQ 211100
TAFPHF
TAF
KPHF 211134Z 2112/2212 23006KT P6SM BKN100
     FM211500 25006KT P6SM SCT100 BKN250
     FM212000 27005KT P6SM SCT100
     FM220200 32004KT P6SM BKN080
     FM220800 32005KT P6SM BKN040=



000
FTUS41 KAKQ 211100
TAFECG
TAF
KECG 211134Z 2112/2212 22005KT P6SM BKN100
     FM211500 25007KT P6SM SCT100 BKN250
     FM212000 24007KT P6SM SCT120
     FM220300 30006KT P6SM BKN080
     FM220800 29006KT P6SM SCT050=



000
FTUS41 KAKQ 211100
TAFSBY
TAF
KSBY 211134Z 2112/2212 22004KT P6SM BKN100
      TEMPO 2112/2114 5SM -SHRA
     FM211500 25006KT P6SM SCT100 BKN200
     FM212000 26004KT P6SM BKN100
     FM220200 32003KT P6SM BKN050
     FM220800 33005KT P6SM BKN030=



000
FTUS41 KAKQ 211100
TAFRIC
TAF
KRIC 211134Z 2112/2212 22004KT P6SM SCT100
     FM211500 26007KT P6SM SCT100 BKN200
     FM212000 29006KT P6SM BKN100
     FM220000 33005KT P6SM BKN050
     FM220800 33006KT P6SM BKN030=



    US Dept of Commerce
    National Oceanic and Atmospheric Administration
    National Weather Service
    1325 East West Highway
    Silver Spring, MD 20910
    Page Author: NWS Internet Services Team
Disclaimer
Information Quality
Credits
Glossary
Privacy Policy
Freedom of Information Act (FOIA)
About Us
Career Opportunities